AirNav   Everest Fuels
 
 683 users online  

1AL4 Elsanor Airport
Robertsdale, Alabama, USA

GOING TO ROBERTSDALE?


FAA INFORMATION EFFECTIVE 21 MAY 2020

Location

FAA Identifier: 1AL4
Lat/Long: 30-32-41.0000N 087-33-34.0000W
30-32.683333N 087-33.566667W
30.5447222,-87.5594444
(estimated)
Elevation: 180 ft. / 55 m (estimated)
Variation: 01E (1990)
From city: 11 miles E of ROBERTSDALE, AL
Time zone: UTC -5 (UTC -6 during Standard Time)
Zip code: 36567

Airport Operations

Airport use: Private use. Permission required prior to landing
Activation date: 03/1993
Control tower: no
ARTCC: JACKSONVILLE CENTER
FSS: ANNISTON FLIGHT SERVICE STATION
Attendance: UNATNDD
Segmented circle: no

Airport Communications

WX AWOS-3PT at JKA (16 nm S): 134.525 (251-968-7581)
WX AWOS-3PT at CQF (17 nm W): 118.425 (251-928-3242)
WX ASOS at PNS (20 nm E): PHONE 850-436-4799

Nearby radio navigation aids

VOR radial/distance  VOR name  Freq  Var
NUNr290/(12.3)SAUFLEY VOR108.8001E
BFMr095/25.9BROOKLEY VORTAC112.8004E

 
NDB name  Hdg/Dist  Freq  Var  ID
PICKENS290/20.732602WPKZ .--. -.- --..

Airport Services

Runway Information

Runway 9/27

Dimensions: 2400 x 100 ft. / 732 x 30 m
Surface: turf
RUNWAY 9  RUNWAY 27
Traffic pattern: leftleft

Airport Ownership and Management from official FAA records

Ownership: Privately-owned
Owner: RICHARD E. GORDON JR
21810 KOLER ROAD
ROBERTSDALE, AL 21756
Phone (805) 572-7510
Manager: RICHARD E. GORDON JR.
21810 KOLER ROAD
ROBERTSDALE, AL 21756
Phone (805) 572-7510

Airport Operational Statistics

Aircraft based on the field: 1
Single engine airplanes: 1
    

Additional Remarks

GLIDER ACTIVITY ON AND INVOF ARPT.
FOR CD CTC PENSACOLA APCH AT 850-266-6884 OR 850-266-6885.

Instrument Procedures

There are no published instrument procedures at 1AL4.

Some nearby airports with instrument procedures:

5R4 - Foley Municipal Airport (10 nm SW)
KJKA - Jack Edwards National Airport (16 nm S)
KNPA - Pensacola Naval Air Station/Forrest Sherman Field (17 nm SE)
KCQF - H L Sonny Callahan Airport (17 nm W)
KPNS - Pensacola International Airport (20 nm E)
 
Loc | Ops | Rwys | IFR | FBO | Links
Com | Nav | Svcs | Stats | Notes

Continental Services
AirBoss

 
Area around 1AL4 (Elsanor Airport)
 
Road maps at: MapQuest Bing Google
 
Aerial photo
No photo
 
Sectional chart

 
Airport distance calculator
Flying to Elsanor Airport? Find the distance to fly.

From to 1AL4

Sunrise and sunset
Times for 29-May-2020
 Local
(UTC-5)
 Zulu
(UTC)
Morning civil twilight05:2310:23
Sunrise05:5010:50
Sunset19:4600:46
Evening civil twilight20:1301:13

Current date and time
Zulu (UTC)  30-May-2020 03:56:20
Local (UTC-5)  29-May-2020 22:56:20
 
METAR
KJKA 
16nm S 
300335Z AUTO 00000KT 10SM CLR 22/21 A3004 RMK AO2 T02210209
KNPA 
17nm SE 
300256Z 26003KT 10SM FEW035 SCT120 BKN180 OVC250 24/21 A3003 RMK AO2 SLP169 T02440206 53017
KCQF 
17nm W 
300335Z AUTO 00000KT 10SM SCT065 22/22 A3004 RMK AO2
KPNS 
20nm E 
300253Z AUTO 00000KT 10SM CLR 25/21 A3003 RMK AO2 SLP169 T02500211 53017
KBFM 
27nm W 
300253Z 26004KT 10SM CLR 24/23 A3004 RMK AO2 SLP173 60004 T02440228 53017
KNDZ 
29nm E 
300256Z 18003KT 10SM FEW038 SCT100 BKN250 24/21 A3003 RMK AO2 SLP154 T02390206 53017 $
KNSE 
30nm E 
300256Z 00000KT 10SM FEW060 BKN250 23/21 A3003 RMK AO2 SLP153 6//// T02280206 53017 PNO $
TAF
KNPA 
17nm SE 
2923/3023 17005KT 9999 FEW035 BKN180 BKN250 QNH2995INS FM300100 VRB03KT 9999 SCT035 SCT120 BKN180 OVC250 QNH2996INS FM300300 VRB02KT 9999 VCSH SCT015 BKN035 BKN120 OVC250 QNH2997INS FM301800 17007KT 9999 SCT035 BKN120 BKN250 QNH3000INS FM302100 21010KT 9999 SCT040 SCT120 BKN250 QNH2995INS LAST NO AMDS AFT 3001 NEXT 3107 AUTOMATED SENSOR METWATCH 3003 TIL 3115 T23/3012Z T30/3018Z FN20034
KPNS 
20nm E 
291739Z 2918/3018 19009KT P6SM SCT035 BKN050 BKN250 TEMPO 2920/2924 4SM SHRA OVC025 FM300300 VRB04KT P6SM BKN050 BKN250 FM301400 36007KT P6SM BKN050
NOTAMs
Click for the latest NOTAMs
NOTAMs are issued by the DoD/FAA and will open in a separate window not controlled by AirNav.

 

 
 

Would you like to see your business listed on this page?

 If your business provides an interesting product or service to pilots, flight crews, aircraft, or users of the Elsanor Airport, you should consider listing it here.  To start the listing process, click on the button below
 
Add a business
 

Other Pages about Elsanor Airport

Update a link
 
Copyright © AirNav, LLC. All rights reserved. Privacy Policy  Contact